METAR Data
IDs: Format: Raw Decoded Include TAF

Data at: 2143 UTC 22 Sep 2020

KY23 222135Z AUTO 17003KT 10SM CLR 26/16 A3003 RMK AO2 T02620159
KY23 222115Z AUTO 20004KT 10SM CLR 26/16 A3003 RMK AO2 T02620159
KY23 222055Z AUTO 16004KT 10SM SCT046 26/16 A3004 RMK AO2 T02630156
KY23 222035Z AUTO 17004KT 10SM SCT044 27/16 A3004 RMK AO2 T02650160
KY23 222015Z AUTO 00000KT 10SM SCT044 27/16 A3005 RMK AO2 T02650157
KY23 221955Z AUTO 18003KT 10SM CLR 26/16 A3005 RMK AO2 T02640159
KY23 221935Z AUTO 18003KT 10SM CLR 26/16 A3006 RMK AO2 T02620160
KY23 221915Z AUTO 15003KT 10SM CLR 26/16 A3007 RMK AO2 T02620156
KY23 221855Z AUTO 17004KT 10SM CLR 26/16 A3008 RMK AO2 T02600161
KY23 221835Z AUTO 16004KT 10SM CLR 26/16 A3008 RMK AO2 T02550157
KY23 221815Z AUTO 13004KT 10SM CLR 26/16 A3009 RMK AO2 T02550163
KY23 221755Z AUTO 00000KT 10SM CLR 25/16 A3010 RMK AO2 T02480162 10248 20096
KY23 221735Z AUTO 00000KT 10SM CLR 24/17 A3010 RMK AO2 T02430166
KY23 221715Z AUTO 11003KT 10SM CLR 23/17 A3011 RMK AO2 T02320171
KY23 221655Z AUTO 00000KT 10SM CLR 22/17 A3011 RMK AO2 T02180168
KY23 221635Z AUTO 00000KT 10SM CLR 21/17 A3012 RMK AO2 T02100165
KY23 221615Z AUTO 03003KT 10SM CLR 21/16 A3012 RMK AO2 T02060164
KY23 221555Z AUTO 00000KT 10SM CLR 20/16 A3013 RMK AO2 T01970161
KY23 221535Z AUTO 20003KT 10SM CLR 19/16 A3013 RMK AO2 T01910159
KY23 221515Z AUTO 21003KT 10SM CLR 19/16 A3014 RMK AO2 T01850157
KY23 221455Z AUTO 00000KT 10SM CLR 17/15 A3014 RMK AO2 T01670147
KY23 221435Z AUTO 00000KT 10SM CLR 16/14 A3014 RMK AO2 T01570144
KY23 221415Z AUTO 00000KT 10SM CLR 15/14 A3014 RMK AO2 T01460141
KY23 221355Z AUTO 00000KT 10SM CLR 14/14 A3013 RMK AO2 T01360136
KY23 221335Z AUTO 00000KT 10SM CLR 13/13 A3014 RMK AO2 T01300130
KY23 221315Z AUTO 00000KT 10SM CLR 12/12 A3013 RMK AO2 T01210121
KY23 221255Z AUTO 00000KT 7SM SCT006 SCT010 11/11 A3014 RMK AO2 T01050105
KY23 221235Z AUTO 00000KT 3/4SM BR OVC006 10/10 A3013 RMK AO2 T00980098
KY23 221215Z AUTO 00000KT 5SM BR CLR 10/10 A3013 RMK AO2 T01010101
KY23 221155Z AUTO 00000KT 5SM BR CLR 11/11 A3013 RMK AO2 70004 T01070107 10136 20102
KY23 221135Z AUTO 00000KT 3SM BR CLR 11/11 A3013 RMK AO2 T01050105
KY23 221115Z AUTO 00000KT 1 1/2SM BR VV007 11/11 A3012 RMK AO2 VIS 1/2V5 T01060106
KY23 221055Z AUTO 00000KT 4SM BR CLR 11/11 A3012 RMK AO2 T01120112
KY23 221035Z AUTO 00000KT 7SM CLR 11/11 A3012 RMK AO2 T01140114
KY23 221015Z AUTO 00000KT 10SM CLR 11/11 A3012 RMK AO2 T01140114
KY23 220955Z AUTO 00000KT 5SM BR CLR 11/11 A3012 RMK AO2 T01120112
KY23 220935Z AUTO 00000KT 7SM CLR 11/11 A3011 RMK AO2 T01120112
KY23 220915Z AUTO 00000KT 7SM CLR 11/11 A3011 RMK AO2 T01120112
KY23 220855Z AUTO 00000KT 7SM CLR 11/11 A3011 RMK AO2 T01140114
KY23 220835Z AUTO 00000KT 7SM CLR 11/11 A3011 RMK AO2 T01140114
KY23 220815Z AUTO 00000KT 7SM CLR 11/11 A3011 RMK AO2 T01140114
KY23 220755Z AUTO 00000KT 5SM BR CLR 12/12 A3012 RMK AO2 T01150115
KY23 220735Z AUTO 00000KT 10SM CLR 12/12 A3012 RMK AO2 T01240124
KY23 220715Z AUTO 00000KT 10SM CLR 13/13 A3012 RMK AO2 T01270127
KY23 220655Z AUTO 00000KT 10SM CLR 12/12 A3012 RMK AO2 T01190119
KY23 220635Z AUTO 00000KT 7SM CLR 12/12 A3011 RMK AO2 T01210121
KY23 220615Z AUTO 00000KT 10SM CLR 12/12 A3012 RMK AO2 T01240122
KY23 220555Z AUTO 00000KT 10SM CLR 14/13 A3012 RMK AO2 T01360133 10187 20136
KY23 220535Z AUTO 00000KT 10SM CLR 14/13 A3012 RMK AO2 T01410134
KY23 220515Z AUTO 13003KT 10SM CLR 14/14 A3012 RMK AO2 T01420136
KY23 220455Z AUTO 00000KT 10SM CLR 14/14 A3012 RMK AO2 T01400135 402410113
KY23 220435Z AUTO 00000KT 10SM CLR 15/14 A3012 RMK AO2 T01450136
KY23 220415Z AUTO 14003KT 10SM CLR 15/14 A3011 RMK AO2 T01450136
KY23 220355Z AUTO 00000KT 10SM CLR 15/14 A3012 RMK AO2 T01500138
KY23 220335Z AUTO 13005KT 10SM CLR 15/14 A3012 RMK AO2 T01510138
KY23 220315Z AUTO 13007KT 10SM CLR 16/14 A3011 RMK AO2 T01550141
KY23 220255Z AUTO 13005KT 10SM CLR 16/14 A3011 RMK AO2 T01570141
KY23 220235Z AUTO 15005KT 10SM CLR 16/14 A3011 RMK AO2 T01580142
KY23 220215Z AUTO 15005KT 10SM CLR 16/15 A3011 RMK AO2 T01590145
KY23 220155Z AUTO 13004KT 10SM CLR 16/15 A3011 RMK AO2 T01550151
KY23 220135Z AUTO 12003KT 10SM CLR 16/16 A3011 RMK AO2 T01600155
KY23 220115Z AUTO 00000KT 10SM CLR 16/16 A3011 RMK AO2 T01590155
KY23 220055Z AUTO 00000KT 10SM CLR 16/15 A3010 RMK AO2 T01610151
KY23 220035Z AUTO 00000KT 10SM SCT090 17/15 A3010 RMK AO2 T01670152
KY23 220015Z AUTO 00000KT 10SM CLR 17/15 A3010 RMK AO2 T01730151
KY23 212355Z AUTO 00000KT 10SM SCT100 19/15 A3009 RMK AO2 60004 T01890152 10241 20168
KY23 212335Z AUTO 00000KT 10SM BKN100 20/15 A3009 RMK AO2 T02020146
KY23 212315Z AUTO 19004KT 10SM BKN100 21/15 A3008 RMK AO2 T02060148
KY23 212255Z AUTO 20003KT 10SM CLR 21/16 A3009 RMK AO2 T02050161
KY23 212235Z AUTO 00000KT 10SM CLR 21/16 A3008 RMK AO2 T02050164
KY23 212215Z AUTO 14006KT 10SM SCT110 20/17 A3007 RMK AO2 T02010165
KY23 212155Z AUTO 10005KT 10SM BKN110 19/17 A3008 RMK AO2 T01910169
KY23 212135Z AUTO 10003KT 10SM -RA SCT110 18/17 A3009 RMK AO2 T01780171
KY23 212115Z AUTO 00000KT 10SM SCT080 SCT110 17/16 A3009 RMK AO2 T01700164
KY23 212055Z AUTO 00000KT 10SM -RA SCT041 SCT055 OVC110 17/16 A3010 RMK AO2 P0004 60004 T01710155
KY23 212035Z AUTO 20006KT 10SM -RA SCT042 SCT050 SCT110 22/12 A3011 RMK AO2 T02160122
KY23 212015Z AUTO 19011G19KT 10SM CLR 23/12 A3009 RMK AO2 T02290118
KY23 211955Z AUTO 20009G14KT 10SM CLR 24/12 A3009 RMK AO2 T02380122
KY23 211935Z AUTO 20009G20KT 10SM CLR 24/12 A3011 RMK AO2 T02350118
KY23 211915Z AUTO 18011G16KT 10SM CLR 24/12 A3011 RMK AO2 T02370123
KY23 211855Z AUTO 17007G17KT 140V200 10SM CLR 23/12 A3012 RMK AO2 T02320119
KY23 211835Z AUTO 18011G14KT 10SM CLR 23/12 A3013 RMK AO2 T02270116
KY23 211815Z AUTO 20009G14KT 10SM CLR 23/11 A3014 RMK AO2 T02250114
KY23 211755Z AUTO 21009G15KT 180V240 10SM CLR 22/11 A3015 RMK AO2 T02190112 10221 20113
KY23 211735Z AUTO 20008G14KT 160V220 10SM CLR 21/11 A3015 RMK AO2 T02070109
KY23 211715Z AUTO 19011KT 10SM CLR 20/11 A3016 RMK AO2 T02010107
KY23 211655Z AUTO 17008KT 10SM CLR 20/11 A3016 RMK AO2 T01960107
KY23 211635Z AUTO 19008G15KT 10SM CLR 19/10 A3017 RMK AO2 T01940103
KY23 211615Z AUTO 19007G15KT 10SM CLR 19/10 A3018 RMK AO2 T01850101
KY23 211555Z AUTO 18006KT 160V220 10SM CLR 19/10 A3018 RMK AO2 T01850103
KY23 211535Z AUTO 20007KT 10SM CLR 18/10 A3019 RMK AO2 T01800095
KY23 211515Z AUTO 17009KT 10SM CLR 18/10 A3019 RMK AO2 T01790096
KY23 211455Z AUTO 18009KT 10SM CLR 17/09 A3019 RMK AO2 T01710091
KY23 211435Z AUTO 17007KT 130V190 10SM CLR 17/09 A3020 RMK AO2 T01650094
KY23 211415Z AUTO 16006KT 10SM CLR 15/09 A3019 RMK AO2 T01540087
KY23 211355Z AUTO 15004KT 10SM CLR 14/08 A3020 RMK AO2 T01430084
KY23 211335Z AUTO 15004KT 10SM CLR 13/08 A3020 RMK AO2 T01330080
KY23 211315Z AUTO 15005KT 10SM CLR 13/08 A3020 RMK AO2 T01270075
KY23 211255Z AUTO 15005KT 10SM CLR 12/07 A3019 RMK AO2 T01210072
KY23 211235Z AUTO 15006KT 10SM CLR 12/07 A3019 RMK AO2 T01150071
KY23 211215Z AUTO 14004KT 10SM CLR 12/07 A3020 RMK AO2 T01150070
KY23 211155Z AUTO 14003KT 10SM CLR 12/07 A3019 RMK AO2 T01150070 10141 20114
KY23 211135Z AUTO 14004KT 10SM CLR 12/07 A3019 RMK AO2 T01150070
KY23 211115Z AUTO 15006KT 10SM CLR 12/07 A3019 RMK AO2 T01170070
KY23 211055Z AUTO 15005KT 10SM CLR 12/07 A3019 RMK AO2 T01160070
KY23 211035Z AUTO 15006KT 10SM CLR 12/07 A3019 RMK AO2 T01170070
KY23 211015Z AUTO 15006KT 10SM SCT065 12/07 A3020 RMK AO2 T01200070
KY23 210955Z AUTO 14006KT 10SM OVC065 13/07 A3020 RMK AO2 T01250071